TimeEST,TemperatureF,Dew PointF,Humidity,Sea Level PressureIn,VisibilityMPH,Wind Direction,Wind SpeedMPH,Gust SpeedMPH,PrecipitationIn,Events,Conditions,WindDirDegrees,DateUTC
12:02 AM,9.0,1.9,73,29.80,1.8,WSW,8.1,-,0.00,Snow,Light Snow,250,2013-01-22 05:02:00
12:13 AM,9.0,1.9,73,29.79,2.0,West,8.1,-,0.00,Snow,Light Snow,270,2013-01-22 05:13:00
12:31 AM,9.0,1.9,73,29.79,4.0,West,6.9,20.7,0.00,Snow,Light Snow,260,2013-01-22 05:31:00
12:53 AM,9.0,1.9,73,29.89,8.0,West,12.7,17.3,0.00,,Overcast,270,2013-01-22 05:53:00
1:23 AM,9.0,1.9,73,29.79,2.0,West,9.2,-,0.00,Snow,Light Snow,280,2013-01-22 06:23:00
1:46 AM,8.1,1.0,73,29.80,4.0,West,11.5,24.2,0.00,Snow,Light Snow,270,2013-01-22 06:46:00
1:53 AM,8.1,-0.0,70,29.91,4.0,West,11.5,21.9,0.00,Snow,Light Snow,270,2013-01-22 06:53:00
2:53 AM,7.0,-4.0,61,29.95,10.0,West,13.8,20.7,0.00,,Mostly Cloudy,280,2013-01-22 07:53:00
3:53 AM,5.0,-6.0,61,29.96,10.0,West,12.7,24.2,N/A,,Mostly Cloudy,280,2013-01-22 08:53:00
4:23 AM,5.0,-5.1,63,29.85,6.0,West,13.8,18.4,0.00,Snow,Light Snow,280,2013-01-22 09:23:00
4:48 AM,5.0,-4.0,66,29.86,1.8,Variable,6.9,-,0.00,Snow,Light Snow,0,2013-01-22 09:48:00
4:53 AM,5.0,-2.9,70,29.97,1.0,WSW,10.4,-,0.00,Snow,Light Snow,250,2013-01-22 09:53:00
5:13 AM,3.9,-2.9,73,29.86,2.0,West,9.2,-,0.00,Snow,Light Snow,260,2013-01-22 10:13:00
5:34 AM,3.9,-4.0,70,29.87,4.0,West,18.4,23.0,0.00,Snow,Light Snow,280,2013-01-22 10:34:00
5:49 AM,3.2,-5.8,66,29.87,5.0,West,12.7,26.5,0.00,,Haze,280,2013-01-22 10:49:00
5:53 AM,3.9,-6.0,64,29.99,6.0,West,15.0,26.5,0.00,,Haze,280,2013-01-22 10:53:00
6:08 AM,3.9,-4.0,70,29.87,3.0,WSW,8.1,-,0.00,Snow,Light Snow,240,2013-01-22 11:08:00
6:15 AM,3.9,-4.0,70,29.88,3.0,West,10.4,-,0.00,Snow,Light Snow,260,2013-01-22 11:15:00
6:23 AM,3.9,-5.1,66,29.88,8.0,Variable,6.9,-,0.00,,Overcast,0,2013-01-22 11:23:00
6:53 AM,3.9,-4.0,70,30.01,3.0,West,10.4,18.4,0.00,Snow,Light Snow,270,2013-01-22 11:53:00
7:15 AM,3.9,-4.0,70,29.89,2.0,West,6.9,-,0.00,Snow,Light Snow,260,2013-01-22 12:15:00
7:22 AM,3.9,-2.9,73,29.89,1.0,Variable,6.9,-,0.00,Snow,Light Snow,0,2013-01-22 12:22:00
7:53 AM,3.9,-5.1,66,30.03,2.0,West,17.3,27.6,0.00,,Overcast,270,2013-01-22 12:53:00
8:16 AM,3.9,-7.1,60,29.91,2.5,West,11.5,28.8,0.00,Snow,Light Snow,270,2013-01-22 13:16:00
8:23 AM,3.9,-6.0,64,29.91,4.0,West,12.7,21.9,0.00,,Overcast,260,2013-01-22 13:23:00
8:36 AM,3.9,-6.0,64,29.92,2.0,West,13.8,24.2,0.00,,Overcast,270,2013-01-22 13:36:00
8:53 AM,3.9,-7.1,60,30.05,3.0,West,12.7,23.0,0.00,,Overcast,260,2013-01-22 13:53:00
9:07 AM,3.9,-6.0,64,29.93,2.5,WSW,15.0,24.2,0.00,Snow,Light Snow,250,2013-01-22 14:07:00
9:18 AM,3.9,-5.1,66,29.93,1.5,West,10.4,20.7,0.00,Snow,Light Snow,260,2013-01-22 14:18:00
9:50 AM,3.2,-4.0,72,29.95,0.2,West,13.8,25.3,0.00,Snow,Heavy Snow,270,2013-01-22 14:50:00
9:53 AM,3.9,-2.9,73,30.07,0.2,West,11.5,25.3,0.00,Snow,Heavy Snow,270,2013-01-22 14:53:00
10:08 AM,3.9,-2.9,73,29.95,0.2,West,10.4,-,0.00,Snow,Heavy Snow,280,2013-01-22 15:08:00
10:20 AM,3.9,-2.0,76,29.96,0.5,WNW,10.4,19.6,0.00,Snow,Snow,290,2013-01-22 15:20:00
10:29 AM,3.9,-2.0,76,29.96,0.5,WNW,11.5,19.6,0.00,Snow,Snow,290,2013-01-22 15:29:00
10:37 AM,3.9,-5.1,66,29.96,1.2,West,13.8,27.6,0.00,Snow,Light Snow,280,2013-01-22 15:37:00
10:45 AM,5.0,-6.0,61,29.96,3.0,West,12.7,21.9,0.00,,Overcast,270,2013-01-22 15:45:00
10:53 AM,5.0,-6.0,61,30.10,4.0,West,9.2,18.4,0.00,,Overcast,260,2013-01-22 15:53:00
11:11 AM,5.0,-7.1,58,29.97,3.0,West,12.7,23.0,0.00,Snow,Blowing Snow,270,2013-01-22 16:11:00
11:16 AM,5.0,-6.0,61,29.97,1.5,West,17.3,25.3,0.00,Snow,Light Snow,270,2013-01-22 16:16:00
11:27 AM,3.9,-6.0,64,29.97,0.8,West,13.8,29.9,0.00,Snow,Light Snow,280,2013-01-22 16:27:00
11:38 AM,5.0,-4.0,66,29.96,1.2,WNW,16.1,21.9,0.00,Snow,Light Snow,290,2013-01-22 16:38:00
11:53 AM,3.9,-6.0,64,30.09,0.8,West,15.0,26.5,0.00,Snow,Light Snow,270,2013-01-22 16:53:00
12:11 PM,5.0,-7.1,58,29.96,2.0,West,11.5,31.1,0.00,Snow,Light Snow,280,2013-01-22 17:11:00
12:15 PM,5.0,-8.0,55,29.96,5.0,West,12.7,24.2,0.00,,Haze,260,2013-01-22 17:15:00
12:19 PM,5.0,-8.0,55,29.96,1.8,West,18.4,29.9,0.00,Snow,Light Snow,280,2013-01-22 17:19:00
12:53 PM,3.9,-8.0,58,30.09,1.2,West,18.4,33.4,0.00,Snow,Light Snow,280,2013-01-22 17:53:00
1:05 PM,5.0,-7.1,58,29.96,3.0,West,13.8,21.9,0.00,Snow,Light Snow,280,2013-01-22 18:05:00
1:25 PM,5.0,-8.0,55,29.95,2.0,WNW,19.6,33.4,0.00,Snow,Light Snow,300,2013-01-22 18:25:00
1:28 PM,3.9,-5.1,66,29.95,0.8,NW,13.8,33.4,0.00,Snow,Light Snow,310,2013-01-22 18:28:00
1:43 PM,3.0,-4.0,73,29.96,0.8,WNW,15.0,24.2,0.00,Snow,Light Snow,290,2013-01-22 18:43:00
1:53 PM,3.9,-4.0,70,30.09,0.5,WNW,13.8,-,0.00,Snow,Snow,300,2013-01-22 18:53:00
2:40 PM,3.0,-4.0,73,29.97,0.2,WNW,10.4,-,0.00,Snow,Heavy Snow,290,2013-01-22 19:40:00
2:48 PM,3.2,-4.0,72,29.98,0.8,WNW,11.5,-,0.00,Snow,Light Snow,290,2013-01-22 19:48:00
2:53 PM,3.0,-4.0,73,30.12,0.5,WNW,11.5,-,0.00,Snow,Snow,290,2013-01-22 19:53:00
3:21 PM,3.0,-4.0,73,29.99,0.8,West,10.4,-,0.00,Snow,Light Snow,280,2013-01-22 20:21:00
3:53 PM,3.9,-7.1,60,30.13,1.0,West,13.8,25.3,0.00,Snow,Light Snow,280,2013-01-22 20:53:00
4:01 PM,3.9,-7.1,60,29.99,3.0,West,10.4,-,0.00,,Overcast,260,2013-01-22 21:01:00
4:06 PM,3.0,-6.0,66,29.99,1.8,WSW,10.4,-,0.00,Snow,Light Snow,250,2013-01-22 21:06:00
4:41 PM,3.9,-7.1,60,30.00,2.5,West,13.8,20.7,0.00,Snow,Light Snow,270,2013-01-22 21:41:00
4:48 PM,3.2,-7.6,61,30.00,5.0,West,11.5,20.7,0.00,Snow,Light Snow,270,2013-01-22 21:48:00
4:53 PM,3.9,-8.0,58,30.15,6.0,West,11.5,19.6,0.00,,Haze,270,2013-01-22 21:53:00
5:30 PM,3.0,-7.1,63,30.02,4.0,WSW,6.9,-,N/A,,Haze,250,2013-01-22 22:30:00
5:53 PM,3.0,-6.0,66,30.17,3.0,West,4.6,-,0.00,Snow,Light Snow,270,2013-01-22 22:53:00
6:53 PM,1.9,-6.0,69,30.17,5.0,North,-9999.0,-,0.00,,Haze,0,2013-01-22 23:53:00
7:14 PM,1.9,-6.0,69,30.03,6.0,Variable,5.8,-,0.00,,Haze,0,2013-01-23 00:14:00
7:53 PM,1.9,-5.1,72,30.17,4.0,West,8.1,-,0.00,,Haze,270,2013-01-23 00:53:00
8:20 PM,1.9,-6.0,69,30.03,3.0,West,11.5,16.1,0.00,Snow,Light Snow,260,2013-01-23 01:20:00
8:53 PM,1.9,-6.0,69,30.17,4.0,West,9.2,-,0.00,,Haze,260,2013-01-23 01:53:00
9:53 PM,1.9,-6.0,69,30.17,4.0,West,6.9,-,N/A,,Haze,260,2013-01-23 02:53:00
10:08 PM,1.9,-6.0,69,30.03,2.0,West,6.9,-,0.00,Snow,Light Snow,260,2013-01-23 03:08:00
10:21 PM,1.9,-6.0,69,30.03,2.5,West,6.9,-,0.00,Snow,Light Snow,260,2013-01-23 03:21:00
10:36 PM,1.9,-5.1,72,30.04,3.0,West,5.8,-,0.00,,Haze,260,2013-01-23 03:36:00
10:46 PM,1.9,-5.1,72,30.04,2.0,Variable,5.8,-,0.00,Snow,Light Snow,0,2013-01-23 03:46:00
10:53 PM,1.9,-5.1,72,30.17,1.8,West,6.9,-,0.00,Snow,Light Snow,260,2013-01-23 03:53:00
11:09 PM,1.9,-5.1,72,30.03,2.5,West,4.6,-,0.00,Snow,Light Snow,260,2013-01-23 04:09:00
11:53 PM,1.9,-5.1,72,30.17,2.0,West,5.8,-,0.00,Snow,Light Snow,270,2013-01-23 04:53:00